Campiña-Hay un problema de comunicación. Ir directamente a Meteoalarm : www.meteoalarm.eu y comprobar si hay avisos .

Sevilla, Andalucía, España
Idioma: es English Français Deutsch Italiano Português Español
 

Informes METAR

 

LEZL - Sevilla, Spain
Distancia de la estación: ENE 8km
Actualización: 27/01/2022 10:30
Despejado
Despejado
 Viento de ENE
Viento: ENE 20 km/h
Temperatura: 13°C
Rocío: 5°C
Humedad: 59%
Barómetro: 1025 hPa
Resumen: Despejado
Visibilidad: mayor de 10 km
2022/01/27 09:30 LEZL 270930Z 06011KT CAVOK 13/05 Q1025 NOSIG
LEMO - Morón, Spain
Distancia de la estación: SE 43km
Actualización: 27/01/2022 10:30
Despejado
Despejado
 Viento de ENE
Viento: ENE 17 km/h
Temperatura: 13°C
Rocío: 6°C
Humedad: 63%
Barómetro: 1024 hPa
Resumen: Despejado
Visibilidad: mayor de 10 km
2022/01/27 09:30 LEMO 270930Z 07009KT CAVOK 13/06 Q1024 NOSIG
LEJR - Jeréz, Spain
Distancia de la estación: S 71km
Actualización: 27/01/2022 10:30
Despejado
Despejado
 Viento de NE
Viento: NE 11 km/h
Temperatura: 14°C
Rocío: 8°C
Humedad: 67%
Barómetro: 1024 hPa
Resumen: Despejado
Visibilidad: mayor de 10 km
2022/01/27 09:30 LEJR 270930Z 05006KT 020V080 CAVOK 14/08 Q1024
 
LERT - Rota, Spain
Distancia de la estación: SSO 89km
Actualización: 27/01/2022 10:30
Despejado
Despejado
 Viento de ENE
Viento: ENE 9 km/h
Temperatura: 12°C
Rocío: 7°C
Humedad: 72%
Barómetro: 1023 hPa
Resumen: Despejado
Visibilidad: mayor de 10 km
2022/01/27 09:30 LERT 270930Z 06005KT 020V090 CAVOK 12/07 Q1023 NOSIG
LEMG - Málaga, Spain
Distancia de la estación: ESE 157km
Actualización: 27/01/2022 10:30
Llovizna, Muy nuboso
Llovizna, Muy nuboso
 Viento de ESE
Viento: ESE 35 km/h
Temperatura: 15°C
Rocío: 8°C
Humedad: 63%
Barómetro: 1025 hPa
Resumen: Llovizna
Nubes: Muy nuboso
Visibilidad: 10 km
Detalles de las nubes: Poco nuboso 853 m
Muy nuboso 1707 m
2022/01/27 09:30 LEMG 270930Z 11019KT 9999 -DZ FEW028 BKN056 15/08 Q1025 NOSIG
LEBA - Córdoba, Spain
Distancia de la estación: ENE 115km
Actualización: 27/01/2022 10:30
Despejado
Despejado
 Viento de E
Viento: E 13 km/h
Temperatura: 11°C
Rocío: 4°C
Humedad: 62%
Barómetro: 1026 hPa
Resumen: Despejado
Visibilidad: mayor de 10 km
2022/01/27 09:30 LEBA 270930Z 08007KT CAVOK 11/04 Q1026
 
LEGR - Granada, Spain
Distancia de la estación: E 198km
Actualización: 27/01/2022 10:30
Poco nuboso
Poco nuboso
 Viento de calm
Viento: Calma
Temperatura: 9°C
Rocío: 5°C
Humedad: 76%
Barómetro: 1025 hPa
Nubes: Poco nuboso
Visibilidad: 10 km
Detalles de las nubes: Poco nuboso 2134 m
2022/01/27 09:30 LEGR 270930Z 00000KT 9999 FEW070 09/05 Q1025
LEAM - Almería, Spain
Distancia de la estación: E 326km
Actualización: 27/01/2022 10:30
Poco nuboso
Poco nuboso
 Viento de NE
Viento: NE 26 km/h
Temperatura: 16°C
Rocío: 6°C
Humedad: 52%
Barómetro: 1027 hPa
Nubes: Poco nuboso
Visibilidad: 10 km
Detalles de las nubes: Poco nuboso 1067 m
2022/01/27 09:30 LEAM 270930Z 04014KT 350V080 9999 FEW035 16/06 Q1027
LEMD - Madrid/Barajas, Spain
Distancia de la estación: NNE 402km
Actualización: 27/01/2022 10:30
Despejado
Despejado
 Viento de calm
Viento: Calma
Temperatura: 3°C
Rocío: -1°C
Humedad: 75%
Barómetro: 1030 hPa
Resumen: Despejado
Visibilidad: mayor de 10 km
2022/01/27 09:30 LEMD 270930Z 00000KT CAVOK 03/M01 Q1030 NOSIG
 
LEVD - Valladolid, Spain
Distancia de la estación: N 492km
Actualización: 27/01/2022 10:30
Despejado
Despejado
 Viento de E
Viento: E 13 km/h
Temperatura: 3°C
Sensación térmica: -1°C
Rocío: -3°C
Humedad: 65%
Barómetro: 1029 hPa
Resumen: Despejado
Visibilidad: mayor de 10 km
2022/01/27 09:30 LEVD 270930Z 08007KT CAVOK 03/M03 Q1029
LEBL - Barcelona, Spain
Distancia de la estación: NE 816km
Actualización: 27/01/2022 10:30
Despejado
Despejado
 Viento de NNO
Viento: NNO 24 km/h
Temperatura: 7°C
Sensación térmica: 3°C
Rocío: -1°C
Humedad: 57%
Barómetro: 1029 hPa
Resumen: Despejado
Visibilidad: mayor de 10 km
2022/01/27 09:30 LEBL 270930Z 33013KT CAVOK 07/M01 Q1029 NOSIG
LEVC - Valencia, Spain
Distancia de la estación: ENE 535km
Actualización: 27/01/2022 10:30
Despejado
Despejado
 Viento de NO
Viento: NO 9 km/h
Temperatura: 8°C
Sensación térmica: 6°C
Rocío: 0°C
Humedad: 57%
Barómetro: 1031 hPa
Resumen: Despejado
Visibilidad: mayor de 10 km
2022/01/27 09:30 LEVC 270930Z 32005KT CAVOK 08/00 Q1031 NOSIG